Time;durP1;ratioP1;P1;durP2;ratioP2;P2;SDS_P1;SDS_P2;PMS_P1;PMS_P2;Temp;Humidity;BMP_temperature;BMP_pressure;BME280_temperature;BME280_humidity;BME280_pressure;Samples;Min_cycle;Max_cycle;Signal;HPM_P1;HPM_P2
2022/01/14 00:01:14;;;;;;;105.00;55.60;;;;;;;-3.12;59.96;100766.69;6310876;22;20003;-77
2022/01/14 00:03:40;;;;;;;90.30;49.60;;;;;;;-2.48;59.70;100884.75;6339072;22;20002;-77
2022/01/14 00:06:06;;;;;;;82.40;46.03;;;;;;;-2.57;59.80;100853.19;6338929;22;20345;-77
2022/01/14 00:08:31;;;;;;;79.60;46.80;;;;;;;-2.22;59.74;100927.69;6338392;22;20006;-77
2022/01/14 00:10:58;;;;;;;92.53;54.70;;;;;;;-2.07;59.73;100914.94;6338722;22;19995;-77
2022/01/14 00:16:24;;;;;;;90.83;54.53;;;;;;;-2.19;59.40;100917.22;6243498;23;19999;-77
2022/01/14 00:18:50;;;;;;;70.27;42.47;;;;;;;-2.34;59.36;100890.19;6318335;22;20010;-77
2022/01/14 00:21:15;;;;;;;66.87;42.13;;;;;;;-2.40;58.87;100885.28;6310546;22;20436;-77
2022/01/14 00:23:42;;;;;;;55.33;33.50;;;;;;;-2.41;59.24;100889.59;6338426;22;20513;-77
2022/01/14 00:34:05;;;;;;;47.23;29.93;;;;;;;-2.71;59.31;100883.94;6338621;22;19998;-77
2022/01/14 00:36:30;;;;;;;46.83;29.20;;;;;;;-2.93;59.40;100855.53;6338439;22;20005;-77
2022/01/14 00:38:56;;;;;;;46.70;28.63;;;;;;;-2.76;59.40;100903.97;6338346;22;19999;-77
2022/01/14 00:41:22;;;;;;;45.97;28.33;;;;;;;-2.48;59.33;100933.88;6339118;22;19995;-77
2022/01/14 00:43:48;;;;;;;45.30;27.27;;;;;;;-3.17;58.92;100811.69;6339023;22;20011;-77
2022/01/14 00:46:14;;;;;;;42.10;25.67;;;;;;;-3.01;59.09;100843.78;6338937;22;20424;-77
2022/01/14 00:48:39;;;;;;;37.27;23.80;;;;;;;-2.49;59.22;100916.69;6338172;22;20048;-77
2022/01/14 00:51:05;;;;;;;39.33;23.97;;;;;;;-2.95;59.04;100840.97;6338670;22;19994;-77
2022/01/14 00:53:31;;;;;;;41.60;25.00;;;;;;;-2.90;58.97;100880.41;6338593;22;20352;-77
2022/01/14 00:56:06;;;;;;;38.43;25.00;;;;;;;-2.82;59.01;100880.09;6338740;22;19999;-77
2022/01/14 01:01:16;;;;;;;37.93;25.13;;;;;;;-2.55;59.17;100902.25;6338748;22;20009;-77
2022/01/14 01:03:41;;;;;;;38.23;23.70;;;;;;;-2.52;58.88;100914.22;6311225;22;20400;-77
2022/01/14 01:06:08;;;;;;;44.20;25.60;;;;;;;-3.32;59.14;100782.16;6339114;22;20418;-77
2022/01/14 01:08:34;;;;;;;46.17;27.03;;;;;;;-2.50;58.67;100897.75;6311259;22;20006;-77
2022/01/14 01:11:03;;;;;;;42.63;25.33;;;;;;;-2.97;58.90;100832.44;6338578;22;19995;-77
2022/01/14 01:13:33;;;;;;;41.70;25.77;;;;;;;-2.97;58.83;100809.19;6338138;22;20005;-77
2022/01/14 01:15:59;;;;;;;40.87;25.90;;;;;;;-2.49;59.18;100896.00;6310770;22;20051;-77
2022/01/14 01:18:24;;;;;;;40.57;26.00;;;;;;;-2.72;59.09;100850.41;6310494;22;19999;-77
2022/01/14 01:20:50;;;;;;;46.17;26.37;;;;;;;-2.93;58.91;100821.09;6338296;22;20005;-77
2022/01/14 01:23:16;;;;;;;41.87;25.50;;;;;;;-2.66;59.43;100861.31;6338687;22;20006;-77
2022/01/14 01:25:45;;;;;;;42.03;27.07;;;;;;;-2.60;58.99;100866.25;6310522;22;19995;-77
2022/01/14 01:28:10;;;;;;;45.93;27.63;;;;;;;-2.60;59.11;100855.06;6337765;22;20002;-77
2022/01/14 01:33:04;;;;;;;43.37;28.00;;;;;;;-2.92;59.19;100797.78;6338127;22;20444;-77
2022/01/14 01:35:30;;;;;;;39.30;24.23;;;;;;;-2.63;58.84;100837.09;6339114;22;20069;-77
2022/01/14 01:37:55;;;;;;;36.90;23.50;;;;;;;-3.20;58.55;100759.25;6339414;22;20003;-78
2022/01/14 01:40:22;;;;;;;38.83;24.37;;;;;;;-2.65;59.07;100857.00;6338820;22;19999;-77
2022/01/14 01:42:50;;;;;;;40.77;25.00;;;;;;;-3.17;58.78;100775.53;6339733;22;20077;-77
2022/01/14 01:45:21;;;;;;;38.87;22.80;;;;;;;-2.66;59.36;100848.41;6312502;22;20006;-77
2022/01/14 01:47:50;;;;;;;37.87;23.23;;;;;;;-2.75;59.23;100822.94;6340130;22;20076;-77
2022/01/14 01:50:22;;;;;;;36.20;23.07;;;;;;;-3.13;59.18;100756.44;6339436;22;20022;-77
2022/01/14 01:52:48;;;;;;;40.03;23.53;;;;;;;-2.82;59.02;100821.50;6339778;22;20005;-77
2022/01/14 01:55:15;;;;;;;36.70;23.30;;;;;;;-3.32;58.87;100736.50;6339533;22;20352;-77
2022/01/14 01:57:44;;;;;;;37.83;24.03;;;;;;;-3.13;58.93;100756.44;6311834;22;20001;-77
2022/01/14 02:00:15;;;;;;;38.67;23.60;;;;;;;-3.02;59.25;100767.16;6338869;22;20070;-77
2022/01/14 02:02:42;;;;;;;37.03;21.65;;;;;;;-3.03;59.59;100773.25;6312138;22;20003;-77
2022/01/14 02:05:08;;;;;;;38.27;22.43;;;;;;;-3.45;59.14;100709.50;6339542;22;20428;-77
2022/01/14 02:07:34;;;;;;;39.27;23.57;;;;;;;-3.07;59.25;100762.19;6339043;22;19994;-77
2022/01/14 02:10:00;;;;;;;32.93;20.40;;;;;;;-3.55;59.10;100698.69;6339099;22;20007;-77
2022/01/14 02:12:34;;;;;;;36.13;20.77;;;;;;;-3.03;59.30;100796.50;6339013;22;20005;-77
2022/01/14 02:15:13;;;;;;;31.70;20.57;;;;;;;-3.30;59.44;100737.28;6338693;22;20027;-77
2022/01/14 02:23:03;;;;;;;39.33;21.80;;;;;;;-2.88;59.26;100812.25;6339890;22;20010;-78
2022/01/14 02:25:29;;;;;;;37.53;21.37;;;;;;;-2.94;59.69;100803.91;6340286;22;19999;-77
2022/01/14 02:28:07;;;;;;;34.80;20.00;;;;;;;-2.96;59.37;100805.72;6340139;22;20001;-77
2022/01/14 02:30:35;;;;;;;33.00;21.57;;;;;;;-3.40;59.46;100732.53;6340119;22;20440;-77
2022/01/14 02:33:01;;;;;;;32.07;20.57;;;;;;;-2.87;59.10;100797.59;6339874;22;20006;-77
2022/01/14 02:35:27;;;;;;;38.00;22.63;;;;;;;-2.99;59.12;100785.97;6312006;22;19998;-77
2022/01/14 02:37:53;;;;;;;33.47;21.67;;;;;;;-2.94;59.23;100775.47;6340640;22;20006;-77
2022/01/14 02:40:20;;;;;;;34.23;20.67;;;;;;;-3.07;59.08;100775.09;6340898;22;20131;-77
2022/01/14 02:42:48;;;;;;;32.87;20.63;;;;;;;-3.32;59.39;100735.66;6312733;22;20062;-77
2022/01/14 02:45:14;;;;;;;35.50;23.77;;;;;;;-3.47;59.31;100679.47;6340706;22;20350;-77
2022/01/14 02:47:39;;;;;;;35.10;21.43;;;;;;;-2.81;59.43;100774.06;6341489;22;20001;-77
2022/01/14 02:50:12;;;;;;;41.57;24.23;;;;;;;-3.23;59.09;100684.47;6313644;22;19994;-77
2022/01/14 02:52:56;;;;;;;40.67;24.17;;;;;;;-3.20;59.12;100692.09;6339021;22;20515;-77
2022/01/14 02:55:28;;;;;;;36.43;22.73;;;;;;;-2.75;59.22;100741.97;6310507;22;20078;-78
2022/01/14 02:57:54;;;;;;;;;;;;;;;-2.89;59.04;100729.63;6312027;22;19999;-77
2022/01/14 03:00:24;;;;;;;39.80;23.93;;;;;;;-3.19;59.45;100677.44;6338773;22;20376;-77
2022/01/14 03:02:51;;;;;;;36.53;22.87;;;;;;;-2.72;59.04;100726.31;6339598;22;20406;-77
2022/01/14 03:05:18;;;;;;;40.13;23.80;;;;;;;-3.59;58.66;100582.72;6311760;22;20014;-77
2022/01/14 03:07:45;;;;;;;37.67;23.13;;;;;;;-3.19;58.92;100646.47;6338254;22;20047;-77
2022/01/14 03:10:12;;;;;;;40.53;26.53;;;;;;;-2.67;59.30;100719.22;6337570;22;20428;-77
2022/01/14 03:12:39;;;;;;;54.60;30.77;;;;;;;-2.65;59.18;100712.22;6309489;22;20006;-77
2022/01/14 03:15:06;;;;;;;52.10;30.13;;;;;;;-2.87;58.86;100683.88;6337234;22;20006;-77
2022/01/14 03:17:32;;;;;;;43.27;26.93;;;;;;;-2.86;59.10;100672.63;6309533;22;20022;-77
2022/01/14 03:19:59;;;;;;;38.90;25.13;;;;;;;-2.68;58.73;100704.59;6337177;22;19995;-77
2022/01/14 03:22:53;;;;;;;39.47;24.80;;;;;;;-3.26;58.81;100612.31;6337088;22;20026;-77
2022/01/14 03:27:54;;;;;;;34.93;23.03;;;;;;;-3.00;58.93;100651.69;6337548;22;20459;-77
2022/01/14 03:30:19;;;;;;;40.80;25.77;;;;;;;-2.71;59.02;100694.41;6337290;22;19991;-77
2022/01/14 03:32:45;;;;;;;50.40;29.47;;;;;;;-2.83;58.73;100689.75;6337240;22;19999;-77
2022/01/14 03:35:11;;;;;;;39.13;25.40;;;;;;;-3.03;59.48;100657.81;6339065;22;20029;-77
2022/01/14 03:37:37;;;;;;;42.43;26.73;;;;;;;-3.04;59.28;100663.91;6339681;22;20436;-77
2022/01/14 03:40:04;;;;;;;42.37;25.67;;;;;;;-3.55;59.25;100579.97;6312113;22;20078;-77
2022/01/14 03:42:30;;;;;;;42.10;25.87;;;;;;;-3.53;59.09;100587.63;6339347;22;20390;-77
2022/01/14 03:44:56;;;;;;;44.20;26.70;;;;;;;-3.45;59.34;100585.56;6311665;22;20136;-77
2022/01/14 03:47:21;;;;;;;45.63;26.90;;;;;;;-3.55;59.55;100589.44;6339510;22;20002;-77
2022/01/14 03:49:47;;;;;;;57.87;32.23;;;;;;;-3.34;59.36;100609.19;6345066;22;19986;-76
2022/01/14 03:52:13;;;;;;;56.10;29.23;;;;;;;-3.10;59.51;100650.41;6365129;22;20010;-77
2022/01/14 03:54:39;;;;;;;52.10;28.30;;;;;;;-3.14;59.14;100644.53;6365764;22;20043;-77
2022/01/14 03:57:04;;;;;;;63.30;33.60;;;;;;;-3.66;59.29;100573.56;6343010;22;20002;-77
2022/01/14 03:59:30;;;;;;;65.30;33.43;;;;;;;-3.48;59.19;100601.19;6338861;22;20022;-77
2022/01/14 04:01:55;;;;;;;70.80;36.60;;;;;;;-3.17;59.28;100661.88;6311663;22;20006;-77
2022/01/14 04:04:22;;;;;;;71.63;36.60;;;;;;;-3.78;59.17;100556.81;6339592;22;20026;-77
2022/01/14 04:06:47;;;;;;;65.53;32.80;;;;;;;-3.54;58.92;100597.13;6339399;22;20361;-77
2022/01/14 04:09:13;;;;;;;65.37;32.43;;;;;;;-3.20;59.24;100647.34;6339687;22;20026;-77
2022/01/14 04:11:39;;;;;;;47.80;25.53;;;;;;;-3.63;59.20;100578.59;6339411;22;20047;-77
2022/01/14 04:15:36;;;;;;;50.57;27.33;;;;;;;-3.54;59.51;100596.28;6339036;22;19999;-77
2022/01/14 04:16:53;;;;;;;47.00;25.70;;;;;;;-3.03;59.39;100664.72;6338929;22;19999;-77
2022/01/14 04:19:19;;;;;;;56.70;29.67;;;;;;;-3.37;59.39;100616.25;6339412;22;19995;-77
2022/01/14 04:21:45;;;;;;;51.37;26.77;;;;;;;-2.98;59.10;100673.13;6339009;22;19999;-77
2022/01/14 04:24:10;;;;;;;50.03;26.53;;;;;;;-3.48;59.15;100597.78;6338782;22;20069;-77
2022/01/14 04:26:36;;;;;;;54.23;29.80;;;;;;;-2.97;58.84;100657.59;6338770;22;19999;-77
2022/01/14 04:29:01;;;;;;;112.17;51.07;;;;;;;-2.97;59.18;100664.50;6338577;22;20131;-77
2022/01/14 04:31:27;;;;;;;82.90;40.57;;;;;;;-2.96;59.21;100651.53;6338516;22;20026;-77
2022/01/14 04:33:52;;;;;;;60.03;32.77;;;;;;;-2.87;59.07;100658.03;6339091;22;20002;-77
2022/01/14 04:36:18;;;;;;;61.23;30.30;;;;;;;-3.66;58.86;100532.28;6311814;22;20418;-77
2022/01/14 04:38:43;;;;;;;61.17;33.43;;;;;;;-3.09;59.27;100636.56;6338544;22;20086;-77
2022/01/14 04:41:09;;;;;;;66.60;35.30;;;;;;;-2.96;58.95;100646.34;6338860;22;20007;-77
2022/01/14 04:43:35;;;;;;;64.50;35.07;;;;;;;-2.86;59.27;100638.22;6310447;22;20003;-77
2022/01/14 04:48:33;;;;;;;67.67;37.57;;;;;;;-2.84;59.35;100634.66;6338569;22;20073;-77
2022/01/14 04:50:59;;;;;;;70.57;37.90;;;;;;;-3.05;59.09;100586.47;6310894;22;20436;-77
2022/01/14 04:53:26;;;;;;;69.70;39.63;;;;;;;-2.72;59.36;100634.13;6338843;22;19995;-77
2022/01/14 04:55:52;;;;;;;62.93;38.73;;;;;;;-2.70;59.14;100628.88;6337909;22;19999;-77
2022/01/14 04:58:18;;;;;;;68.33;39.43;;;;;;;-3.08;58.82;100565.94;6338202;22;20351;-77
2022/01/14 05:00:44;;;;;;;69.43;39.97;;;;;;;-2.78;59.25;100620.63;6337899;22;20078;-77
2022/01/14 05:03:09;;;;;;;63.93;38.57;;;;;;;-2.94;59.09;100563.59;6338458;22;20333;-77
2022/01/14 05:05:38;;;;;;;59.40;36.10;;;;;;;-2.70;59.37;100606.44;6338497;22;20029;-77
2022/01/14 05:08:09;;;;;;;66.63;38.17;;;;;;;-2.75;59.11;100613.56;6338029;22;20432;-77
2022/01/14 05:10:47;;;;;;;63.37;38.23;;;;;;;-2.75;59.41;100623.06;6337878;22;19998;-77
2022/01/14 05:13:12;;;;;;;53.03;34.53;;;;;;;-2.73;59.74;100631.59;6338033;22;19999;-77
2022/01/14 05:15:38;;;;;;;59.80;38.17;;;;;;;-3.46;59.02;100515.94;6338054;22;19999;-78
2022/01/14 05:18:03;;;;;;;60.57;40.47;;;;;;;-3.29;59.37;100550.44;6339000;22;20002;-77
2022/01/14 05:20:29;;;;;;;71.87;43.50;;;;;;;-3.37;59.23;100531.88;6339374;22;20356;-77
2022/01/14 05:22:54;;;;;;;64.73;43.63;;;;;;;-3.11;59.03;100573.81;6339158;22;20014;-77
2022/01/14 05:25:19;;;;;;;70.87;42.77;;;;;;;-3.13;59.22;100585.94;6338929;22;19999;-77
2022/01/14 05:27:45;;;;;;;71.03;45.13;;;;;;;-2.72;59.25;100646.19;6338956;22;21029;-77
2022/01/14 05:30:12;;;;;;;75.17;46.27;;;;;;;-2.95;59.15;100611.03;6310948;22;20002;-77
2022/01/14 05:32:46;;;;;;;76.27;46.33;;;;;;;-2.77;59.30;100620.56;6339033;22;19995;-77
2022/01/14 05:35:11;;;;;;;71.23;45.20;;;;;;;-2.86;59.30;100630.47;6339036;22;20002;-77
2022/01/14 05:37:37;;;;;;;67.87;42.53;;;;;;;-2.94;59.18;100584.28;6338981;22;20003;-77
2022/01/14 05:40:02;;;;;;;67.50;44.03;;;;;;;-3.14;59.11;100563.63;6339885;22;20009;-77
2022/01/14 05:42:33;;;;;;;68.00;43.20;;;;;;;-3.12;59.42;100572.13;6339835;22;19998;-77
2022/01/14 05:44:59;;;;;;;86.40;51.50;;;;;;;-3.18;59.39;100559.47;6339829;22;20041;-77
2022/01/14 05:47:24;;;;;;;75.43;47.57;;;;;;;-3.63;58.87;100467.63;6339856;22;19995;-79
2022/01/14 05:49:50;;;;;;;75.20;48.60;;;;;;;-3.60;58.78;100498.47;6338553;22;20044;-77
2022/01/14 05:52:15;;;;;;;76.20;49.67;;;;;;;-3.03;59.06;100597.56;6339669;22;20005;-77
2022/01/14 05:54:41;;;;;;;77.23;48.83;;;;;;;-2.97;59.62;100587.00;6342407;22;20023;-77
2022/01/14 05:57:06;;;;;;;86.47;59.13;;;;;;;-3.00;59.13;100574.19;6313321;22;20499;-77
2022/01/14 05:59:31;;;;;;;86.60;52.67;;;;;;;-3.13;59.10;100537.72;6312676;22;20005;-77
2022/01/14 06:01:57;;;;;;;85.10;54.17;;;;;;;-3.07;59.11;100578.78;6338025;22;20471;-77
2022/01/14 06:04:22;;;;;;;91.60;57.30;;;;;;;-3.40;58.96;100531.16;6338335;22;19995;-77
2022/01/14 06:06:48;;;;;;;87.77;53.13;;;;;;;-3.08;59.00;100568.50;6310984;22;20006;-77
2022/01/14 06:09:13;;;;;;;78.70;51.20;;;;;;;-2.88;59.46;100591.75;6338229;22;19994;-77
2022/01/14 06:11:38;;;;;;;85.57;53.70;;;;;;;-3.60;59.23;100462.31;6337888;22;20026;-77
2022/01/14 06:14:04;;;;;;;83.10;52.57;;;;;;;-3.12;58.94;100530.81;6337721;22;19998;-77
2022/01/14 06:16:29;;;;;;;82.37;51.67;;;;;;;-3.03;58.93;100539.00;6338836;22;20440;-77
2022/01/14 06:18:55;;;;;;;91.63;55.37;;;;;;;-3.18;58.83;100515.56;6338664;22;19995;-77
2022/01/14 06:21:20;;;;;;;106.37;63.50;;;;;;;-3.39;59.32;100494.13;6338198;22;20022;-77
2022/01/14 06:23:45;;;;;;;118.67;71.03;;;;;;;-3.29;59.14;100503.97;6337813;22;20001;-77
2022/01/14 06:26:11;;;;;;;95.53;60.37;;;;;;;-2.82;58.79;100583.75;6309531;22;20026;-77
2022/01/14 06:28:36;;;;;;;85.37;55.63;;;;;;;-3.04;59.08;100554.56;6310424;22;20006;-77
2022/01/14 06:31:02;;;;;;;81.17;53.03;;;;;;;-2.84;59.01;100572.63;6338010;22;20079;-77
2022/01/14 06:33:27;;;;;;;78.57;52.03;;;;;;;-2.94;58.98;100550.69;6337994;22;19999;-77
2022/01/14 06:35:53;;;;;;;73.50;45.20;;;;;;;-2.87;58.88;100557.25;6338708;22;20002;-77
2022/01/14 06:38:19;;;;;;;75.17;49.13;;;;;;;-2.74;59.27;100573.06;6338293;22;20436;-77
2022/01/14 06:40:48;;;;;;;77.83;51.70;;;;;;;-2.69;58.79;100564.19;6338519;22;20010;-77
2022/01/14 06:43:14;;;;;;;69.50;44.60;;;;;;;-2.78;58.74;100533.59;6338327;22;20022;-77
2022/01/14 06:45:40;;;;;;;64.23;41.90;;;;;;;-2.74;58.44;100539.47;6310379;22;19995;-77
2022/01/14 06:48:05;;;;;;;66.40;42.00;;;;;;;-2.47;58.46;100561.47;6307651;22;20059;-77
2022/01/14 06:50:31;;;;;;;75.10;49.30;;;;;;;-2.86;58.63;100473.66;6338467;22;19995;-77
2022/01/14 06:52:56;;;;;;;87.63;58.27;;;;;;;-2.76;58.60;100472.34;6337140;22;20018;-76
2022/01/14 06:55:22;;;;;;;80.57;52.47;;;;;;;-2.53;58.21;100517.78;6335986;22;19991;-77
2022/01/14 06:57:47;;;;;;;81.77;51.37;;;;;;;-2.29;58.39;100550.25;6336609;22;20398;-76
2022/01/14 07:00:15;;;;;;;79.60;54.63;;;;;;;-2.25;58.36;100536.28;6308366;22;20037;-77
2022/01/14 07:02:41;;;;;;;96.60;62.63;;;;;;;-2.66;58.40;100475.31;6336547;22;19999;-76
2022/01/14 07:05:08;;;;;;;96.47;62.07;;;;;;;-2.25;58.64;100517.31;6337233;22;20013;-77
2022/01/14 07:07:34;;;;;;;87.97;57.00;;;;;;;-2.07;58.34;100541.50;6316080;22;20011;-76
2022/01/14 07:10:00;;;;;;;88.93;59.00;;;;;;;-2.24;58.36;100519.84;6307417;22;20048;-77
2022/01/14 07:12:28;;;;;;;88.37;57.83;;;;;;;-2.03;58.07;100543.03;6304883;22;20022;-77
2022/01/14 07:14:54;;;;;;;89.43;57.17;;;;;;;-2.07;58.15;100544.94;6307326;22;19999;-77
2022/01/14 07:17:24;;;;;;;77.20;46.23;;;;;;;-2.04;58.54;100549.13;6307625;22;20019;-77
2022/01/14 07:19:52;;;;;;;75.97;47.37;;;;;;;-2.12;57.69;100541.72;6308337;22;20007;-77
2022/01/14 07:22:18;;;;;;;79.17;49.73;;;;;;;-2.07;57.87;100549.28;6311879;22;19999;-77
2022/01/14 07:24:43;;;;;;;94.33;54.93;;;;;;;-2.24;58.02;100521.59;6311491;22;20027;-77
2022/01/14 07:27:09;;;;;;;102.37;60.53;;;;;;;-2.35;57.83;100498.00;6309645;22;20010;-77
2022/01/14 07:29:34;;;;;;;106.93;61.93;;;;;;;-2.22;57.83;100499.09;6309300;22;20140;-77
2022/01/14 07:32:00;;;;;;;101.40;63.10;;;;;;;-2.27;57.98;100480.34;6308638;22;20514;-77
2022/01/14 07:34:26;;;;;;;124.47;74.70;;;;;;;-2.01;58.54;100511.00;6309879;22;20121;-77
2022/01/14 07:36:52;;;;;;;150.50;85.17;;;;;;;-1.95;58.13;100508.13;6307008;22;19995;-77
2022/01/14 07:39:19;;;;;;;141.90;82.03;;;;;;;-1.87;57.79;100504.31;6305971;22;20061;-77
2022/01/14 07:41:46;;;;;;;134.40;78.63;;;;;;;-1.73;58.06;100502.72;6307279;22;20082;-76
2022/01/14 07:44:11;;;;;;;99.67;57.10;;;;;;;-1.92;58.33;100463.13;6307541;22;20417;-77
2022/01/14 07:46:37;;;;;;;74.10;44.47;;;;;;;-2.11;57.98;100414.03;6305019;22;20034;-78
2022/01/14 07:49:03;;;;;;;64.20;38.47;;;;;;;-2.04;58.33;100399.06;6307151;22;20060;-77
2022/01/14 07:51:29;;;;;;;72.33;44.00;;;;;;;-1.83;58.40;100412.66;6303509;22;20030;-78
2022/01/14 07:53:56;;;;;;;79.73;46.07;;;;;;;-1.36;57.96;100462.84;6304830;22;20351;-77
2022/01/14 07:56:22;;;;;;;53.53;33.37;;;;;;;-1.24;58.22;100468.31;6307508;22;19995;-77
2022/01/14 07:58:48;;;;;;;49.43;31.33;;;;;;;-1.73;58.18;100375.03;6306405;22;20073;-78
2022/01/14 08:01:13;;;;;;;33.07;20.43;;;;;;;-1.15;58.00;100475.59;6303363;22;20003;-78
2022/01/14 08:03:39;;;;;;;52.00;30.73;;;;;;;-1.39;58.13;100416.38;6278669;22;19995;-78
2022/01/14 08:06:04;;;;;;;46.93;29.70;;;;;;;-1.23;58.49;100431.13;6306639;22;20002;-78
2022/01/14 08:08:30;;;;;;;49.43;29.87;;;;;;;-1.02;58.29;100455.88;6279299;22;20007;-78
2022/01/14 08:10:56;;;;;;;41.30;27.20;;;;;;;-1.36;57.87;100386.91;6279868;22;19998;-78
2022/01/14 08:13:21;;;;;;;37.87;24.90;;;;;;;-2.07;58.20;100273.28;6306025;22;19999;-77
2022/01/14 08:15:47;;;;;;;42.30;27.87;;;;;;;-1.00;58.12;100426.38;6307476;22;20061;-77
2022/01/14 08:18:13;;;;;;;41.27;26.83;;;;;;;-3.72;57.99;99970.00;6306974;22;19995;-78
2022/01/14 08:20:38;;;;;;;39.00;25.40;;;;;;;-1.30;58.12;100358.91;6306842;22;20083;-77
2022/01/14 08:23:03;;;;;;;35.53;23.23;;;;;;;-1.11;57.92;100381.22;6309738;22;20428;-77
2022/01/14 08:25:29;;;;;;;36.23;24.57;;;;;;;-0.78;57.90;100417.41;6282854;22;20333;-77
2022/01/14 08:27:54;;;;;;;39.57;25.87;;;;;;;-0.57;58.15;100444.78;6309840;22;20049;-78
2022/01/14 08:30:20;;;;;;;48.07;31.60;;;;;;;-1.10;57.56;100337.09;6309818;22;19992;-77
2022/01/14 08:32:46;;;;;;;65.83;39.90;;;;;;;-0.79;57.83;100369.91;6322905;22;19995;-77
2022/01/14 08:35:11;;;;;;;53.47;35.07;;;;;;;-0.78;57.67;100353.44;6300735;22;20080;-78
2022/01/14 08:37:38;;;;;;;40.23;27.70;;;;;;;-0.42;57.46;100388.63;6305074;22;20519;-77
2022/01/14 08:40:06;;;;;;;37.90;25.73;;;;;;;-0.19;57.75;100410.63;6306200;22;19999;-81
2022/01/14 08:42:32;;;;;;;43.10;28.13;;;;;;;-0.09;57.30;100399.63;6280965;22;20003;-81
2022/01/14 08:44:58;;;;;;;36.17;24.70;;;;;;;-0.36;57.44;100345.00;6306887;22;20057;-81
2022/01/14 08:47:23;;;;;;;35.40;23.47;;;;;;;0.09;57.59;100397.75;6311853;22;20022;-82
2022/01/14 08:49:48;;;;;;;31.73;22.77;;;;;;;0.11;57.25;100398.50;6281217;22;20003;-81
2022/01/14 08:52:14;;;;;;;31.17;20.47;;;;;;;0.04;57.31;100373.81;6308769;22;20455;-80
2022/01/14 08:54:40;;;;;;;30.90;21.73;;;;;;;0.23;57.19;100394.34;6311435;22;20052;-81
2022/01/14 08:57:06;;;;;;;33.50;23.50;;;;;;;-0.19;57.00;100320.66;6284199;22;20056;-80
2022/01/14 08:59:32;;;;;;;33.90;23.33;;;;;;;0.35;56.85;100387.56;6282711;22;19999;-79
2022/01/14 09:01:58;;;;;;;35.43;23.47;;;;;;;0.42;56.89;100386.28;6283684;22;20002;-80
2022/01/14 09:04:23;;;;;;;39.90;26.77;;;;;;;0.08;56.85;100312.16;6284397;22;20121;-80
2022/01/14 09:06:49;;;;;;;44.70;29.63;;;;;;;0.26;56.75;100313.63;6310086;22;20003;-80
2022/01/14 09:09:15;;;;;;;44.33;29.70;;;;;;;0.58;56.76;100341.06;6311018;22;19995;-80
2022/01/14 09:11:40;;;;;;;38.53;25.93;;;;;;;0.66;56.91;100347.56;6310481;22;19996;-80
2022/01/14 09:14:06;;;;;;;33.27;24.70;;;;;;;0.20;56.46;100254.28;6309445;22;20010;-80
2022/01/14 09:16:31;;;;;;;33.57;23.70;;;;;;;0.48;56.61;100294.97;6316139;22;20395;-81
2022/01/14 09:18:56;;;;;;;33.67;22.47;;;;;;;0.85;56.26;100335.09;6319288;22;20006;-79
2022/01/14 09:21:22;;;;;;;29.40;20.17;;;;;;;0.63;55.97;100274.06;6315579;22;20006;-81
2022/01/14 09:23:54;;;;;;;23.00;14.60;;;;;;;0.97;55.85;100307.50;6306934;22;20006;-78
2022/01/14 09:26:20;;;;;;;24.52;14.82;;;;;;;1.12;55.58;100324.72;6306053;22;19995;-77
2022/01/14 09:28:46;;;;;;;20.63;13.70;;;;;;;0.55;55.14;100205.31;6305002;22;20022;-78
2022/01/14 09:31:12;;;;;;;28.80;18.80;;;;;;;1.19;54.95;100287.78;6278028;22;20443;-77
2022/01/14 09:33:38;;;;;;;27.33;18.57;;;;;;;0.84;54.92;100206.06;6304828;22;19996;-78
2022/01/14 09:36:04;;;;;;;33.13;22.43;;;;;;;1.26;54.67;100252.66;6305750;22;20023;-78
2022/01/14 09:38:31;;;;;;;19.20;14.27;;;;;;;1.23;54.48;100229.44;6305414;22;20003;-77
2022/01/14 09:40:57;;;;;;;20.93;14.33;;;;;;;1.69;54.02;100286.22;6306135;22;20004;-77
2022/01/14 09:43:23;;;;;;;19.97;13.43;;;;;;;1.81;54.19;100271.56;6306388;22;20329;-77
2022/01/14 09:45:51;;;;;;;15.57;10.27;;;;;;;1.89;53.67;100253.63;6306581;22;19995;-77
2022/01/14 09:48:17;;;;;;;15.17;10.87;;;;;;;1.52;53.41;100177.25;6305880;22;19995;-78
2022/01/14 09:50:44;;;;;;;13.87;10.30;;;;;;;1.81;52.88;100212.50;6306959;22;20001;-78
2022/01/14 09:53:16;;;;;;;16.27;11.90;;;;;;;1.97;52.94;100222.69;6277763;22;19995;-78
2022/01/14 09:55:42;;;;;;;;;;;;;;;2.14;52.51;100247.56;6306363;22;20046;-77
2022/01/14 09:58:08;;;;;;;21.07;15.33;;;;;;;2.30;53.19;100249.94;6278055;22;20318;-78
2022/01/14 10:00:35;;;;;;;21.37;16.57;;;;;;;2.34;52.84;100226.19;6305358;22;20062;-77
2022/01/14 10:03:01;;;;;;;27.70;17.80;;;;;;;2.55;52.63;100234.25;6305713;22;20021;-77
2022/01/14 10:05:32;;;;;;;29.70;18.97;;;;;;;2.20;52.82;100161.16;6305230;22;20002;-77
2022/01/14 10:08:14;;;;;;;23.85;16.10;;;;;;;2.72;52.57;100220.81;6305667;22;20053;-78
2022/01/14 10:10:48;;;;;;;24.88;16.80;;;;;;;2.48;52.27;100173.91;6306411;22;20463;-78
2022/01/14 10:13:23;;;;;;;18.50;12.00;;;;;;;2.72;51.61;100179.09;6278249;22;20026;-78
2022/01/14 10:15:59;;;;;;;20.73;13.73;;;;;;;2.95;51.10;100205.25;6305228;22;20437;-78
2022/01/14 10:18:26;;;;;;;15.93;12.03;;;;;;;3.01;51.25;100202.22;6305959;22;19999;-78
2022/01/14 10:20:51;;;;;;;18.50;12.80;;;;;;;3.06;50.73;100187.91;6305925;22;20025;-77
2022/01/14 10:23:38;;;;;;;18.03;11.80;;;;;;;2.62;50.71;100104.28;6278996;22;20030;-77
2022/01/14 10:26:04;;;;;;;19.77;12.63;;;;;;;2.70;50.45;100110.59;6306419;22;20074;-78
2022/01/14 10:28:30;;;;;;;17.53;12.30;;;;;;;3.03;50.55;100149.00;6277715;22;20033;-77
2022/01/14 10:30:55;;;;;;;15.17;11.27;;;;;;;2.88;50.05;100114.44;6303856;22;19999;-77
2022/01/14 10:33:26;;;;;;;22.03;15.07;;;;;;;3.14;50.17;100140.34;6303704;22;20018;-77
2022/01/14 10:35:51;;;;;;;18.13;12.93;;;;;;;3.32;50.17;100154.63;6305197;22;20429;-77
2022/01/14 10:38:22;;;;;;;19.87;13.97;;;;;;;3.40;50.37;100154.03;6305257;22;20083;-77
2022/01/14 10:40:50;;;;;;;21.63;14.43;;;;;;;3.19;50.58;100099.94;6303874;22;19999;-77
2022/01/14 10:43:21;;;;;;;20.47;13.70;;;;;;;3.50;50.29;100141.94;6305129;22;20418;-78
2022/01/14 10:45:48;;;;;;;27.10;17.03;;;;;;;3.43;50.53;100122.47;6306457;22;19995;-78
2022/01/14 10:48:16;;;;;;;22.23;16.33;;;;;;;3.62;50.67;100133.16;6305222;22;20361;-78
2022/01/14 10:50:44;;;;;;;24.80;17.77;;;;;;;3.67;51.08;100124.97;6305900;22;19991;-78
2022/01/14 10:53:16;;;;;;;21.13;13.53;;;;;;;3.64;51.41;100107.75;6305772;22;20074;-78
2022/01/14 10:55:47;;;;;;;26.20;18.50;;;;;;;3.39;51.20;100064.47;6278294;22;19999;-78
2022/01/14 10:58:22;;;;;;;25.92;17.17;;;;;;;3.81;51.44;100111.69;6305485;22;20021;-78
2022/01/14 11:00:50;;;;;;;20.33;14.53;;;;;;;3.80;51.54;100103.00;6303257;22;19999;-78
2022/01/14 11:03:30;;;;;;;26.67;16.37;;;;;;;2.92;51.64;99955.09;6305166;22;20060;-78
2022/01/14 11:06:16;;;;;;;24.17;14.93;;;;;;;3.56;52.04;100060.53;6278082;22;20002;-78
2022/01/14 11:08:42;;;;;;;24.07;16.03;;;;;;;3.62;52.33;100062.66;6304209;22;20468;-78
2022/01/14 11:11:08;;;;;;;24.50;17.07;;;;;;;3.63;52.15;100066.09;6276981;22;19995;-78
2022/01/14 11:13:33;;;;;;;22.50;15.63;;;;;;;3.23;52.06;99988.31;6277392;22;20077;-78
2022/01/14 11:15:59;;;;;;;17.70;12.00;;;;;;;3.50;52.43;100046.16;6306171;22;20022;-78
2022/01/14 11:18:24;;;;;;;20.30;14.37;;;;;;;3.35;52.69;99991.75;6305210;22;20021;-78
2022/01/14 11:23:34;;;;;;;29.60;18.97;;;;;;;3.85;52.92;100042.56;6304260;22;20087;-78
2022/01/14 11:26:02;;;;;;;26.70;16.47;;;;;;;3.88;53.09;100038.88;6305105;22;20078;-77
2022/01/14 11:28:35;;;;;;;34.77;23.73;;;;;;;3.90;53.32;100032.59;6275725;22;20060;-77
2022/01/14 11:31:20;;;;;;;31.20;21.77;;;;;;;3.96;53.86;100020.81;6277276;22;20033;-77
2022/01/14 11:33:46;;;;;;;32.13;20.30;;;;;;;4.00;54.08;100033.50;6276529;22;19999;-76
2022/01/14 11:36:11;;;;;;;24.70;16.90;;;;;;;3.75;54.37;99977.19;6302482;22;20074;-78
2022/01/14 11:38:44;;;;;;;24.70;17.37;;;;;;;4.08;54.33;100006.75;6305387;22;20029;-78
2022/01/14 11:41:15;;;;;;;;;;;;;;;4.06;54.84;100011.28;6308905;22;19999;-80